Time;durP1;ratioP1;P1;durP2;ratioP2;P2;SDS_P1;SDS_P2;PMS_P1;PMS_P2;Temp;Humidity;BMP_temperature;BMP_pressure;BME280_temperature;BME280_humidity;BME280_pressure;Samples;Min_cycle;Max_cycle;Signal;HPM_P1;HPM_P2
2022/10/16 00:01:16;;;;;;;8.55;5.10;;;;;;;15.74;60.88;100878.06;5047578;28;20055;-64
2022/10/16 00:03:43;;;;;;;6.03;5.10;;;;;;;15.68;60.86;100865.16;5040448;28;20047;-64
2022/10/16 00:06:09;;;;;;;8.48;5.35;;;;;;;15.70;60.78;100879.34;5048191;28;20037;-64
2022/10/16 00:08:36;;;;;;;12.45;6.22;;;;;;;15.68;60.97;100878.66;5035913;28;20572;-64
2022/10/16 00:11:07;;;;;;;7.72;5.00;;;;;;;15.68;61.16;100879.50;5018818;28;20048;-64
2022/10/16 00:13:34;;;;;;;9.32;5.57;;;;;;;15.60;61.01;100862.34;5044389;28;20036;-64
2022/10/16 00:16:01;;;;;;;8.98;5.22;;;;;;;15.60;60.98;100868.63;5043992;28;20032;-64
2022/10/16 00:18:28;;;;;;;7.43;5.32;;;;;;;15.64;61.14;100874.59;5044232;28;20019;-64
2022/10/16 00:20:53;;;;;;;8.82;5.68;;;;;;;15.66;60.85;100880.66;5048796;28;20543;-64
2022/10/16 00:23:19;;;;;;;9.27;5.47;;;;;;;15.63;61.01;100879.13;5037368;28;20040;-64
2022/10/16 00:25:55;;;;;;;7.78;5.07;;;;;;;15.57;61.10;100874.31;5042420;28;20044;-64
2022/10/16 00:28:20;;;;;;;7.85;5.78;;;;;;;15.43;60.90;100857.78;5041520;28;20043;-64
2022/10/16 00:30:46;;;;;;;9.35;5.55;;;;;;;15.61;60.95;100877.59;5047834;28;20082;-64
2022/10/16 00:33:11;;;;;;;9.30;6.07;;;;;;;15.51;60.91;100874.94;5037551;28;20131;-64
2022/10/16 00:35:37;;;;;;;9.98;6.00;;;;;;;15.50;60.86;100875.94;5043479;28;20025;-65
2022/10/16 00:38:02;;;;;;;7.93;5.68;;;;;;;15.57;61.02;100887.84;5044233;28;20112;-64
2022/10/16 00:40:28;;;;;;;9.15;5.40;;;;;;;15.52;61.20;100879.38;5036524;28;20056;-64
2022/10/16 00:42:53;;;;;;;5.82;4.95;;;;;;;15.57;61.07;100890.56;5048325;28;20028;-63
2022/10/16 00:45:19;;;;;;;9.13;6.07;;;;;;;15.56;60.92;100886.16;5038196;28;20624;-63
2022/10/16 00:47:48;;;;;;;11.40;5.63;;;;;;;15.51;61.21;100879.50;5042329;28;20100;-63
2022/10/16 00:50:32;;;;;;;11.65;6.18;;;;;;;15.42;61.36;100878.53;5045719;28;20040;-63
2022/10/16 00:52:59;;;;;;;10.10;6.40;;;;;;;15.50;61.71;100905.69;5034170;28;20017;-64
2022/10/16 00:55:27;;;;;;;8.05;5.68;;;;;;;15.51;61.32;100901.97;5030265;28;20025;-64
2022/10/16 00:57:53;;;;;;;8.70;5.53;;;;;;;15.49;61.77;100913.94;5031707;28;20033;-63
2022/10/16 01:00:23;;;;;;;10.00;5.88;;;;;;;15.46;61.77;100907.00;5046313;28;20525;-64
2022/10/16 01:02:57;;;;;;;11.48;5.32;;;;;;;15.43;61.81;100915.41;5034906;28;20411;-64
2022/10/16 01:05:30;;;;;;;8.38;5.97;;;;;;;15.44;62.13;100908.13;5048131;28;20032;-63
2022/10/16 01:08:13;;;;;;;8.30;5.25;;;;;;;15.40;61.89;100915.72;5040134;28;20037;-63
2022/10/16 01:10:49;;;;;;;9.63;5.95;;;;;;;15.41;61.77;100913.84;5048108;28;20115;-63
2022/10/16 01:13:24;;;;;;;12.10;6.07;;;;;;;15.38;62.05;100911.47;5036990;28;20415;-63
2022/10/16 01:15:50;;;;;;;9.02;5.65;;;;;;;15.37;62.21;100916.00;5040986;28;20468;-63
2022/10/16 01:18:37;;;;;;;7.90;5.65;;;;;;;15.36;62.27;100910.72;5033996;28;20036;-64
2022/10/16 01:21:31;;;;;;;8.60;5.78;;;;;;;15.33;62.30;100916.44;5018909;28;20060;-63
2022/10/16 01:24:39;;;;;;;7.85;6.00;;;;;;;15.30;62.47;100914.88;5037500;28;20102;-64
2022/10/16 01:27:30;;;;;;;8.93;6.10;;;;;;;15.32;62.19;100915.56;5021076;28;20054;-64
2022/10/16 01:30:18;;;;;;;9.10;5.95;;;;;;;15.29;62.30;100921.25;5035886;28;20046;-64
2022/10/16 01:32:54;;;;;;;7.15;5.20;;;;;;;15.27;62.34;100930.53;5039750;28;20045;-63
2022/10/16 01:35:34;;;;;;;8.82;5.57;;;;;;;15.27;62.40;100920.59;5044747;28;20029;-63
2022/10/16 01:38:39;;;;;;;9.13;5.53;;;;;;;15.16;62.36;100915.34;5038873;28;20103;-63
2022/10/16 01:41:11;;;;;;;7.53;5.82;;;;;;;15.22;62.41;100925.56;5040546;28;20044;-63
2022/10/16 01:43:43;;;;;;;11.57;6.07;;;;;;;15.09;62.74;100914.25;5029408;28;20457;-63
2022/10/16 01:46:10;;;;;;;9.45;6.47;;;;;;;14.92;63.35;100903.38;5029649;28;20037;-63
2022/10/16 01:48:37;;;;;;;10.65;6.78;;;;;;;14.91;63.55;100907.94;5029196;28;20120;-64
2022/10/16 01:51:10;;;;;;;11.77;5.95;;;;;;;14.98;63.96;100927.97;5029664;28;20029;-63
2022/10/16 01:53:36;;;;;;;9.68;6.10;;;;;;;14.95;63.89;100922.00;5029236;28;20116;-63
2022/10/16 01:56:05;;;;;;;12.65;6.68;;;;;;;14.95;64.51;100927.41;5030553;28;20704;-63
2022/10/16 01:58:37;;;;;;;8.45;6.45;;;;;;;14.94;65.07;100926.56;5030708;28;20021;-63
2022/10/16 02:01:07;;;;;;;12.18;7.00;;;;;;;14.90;65.58;100927.84;5030807;28;20044;-63
2022/10/16 02:03:36;;;;;;;11.70;6.55;;;;;;;14.86;66.12;100930.97;5030072;28;20037;-63
2022/10/16 02:06:01;;;;;;;9.48;6.70;;;;;;;14.83;66.72;100931.31;5030828;28;20123;-63
2022/10/16 02:08:29;;;;;;;11.32;7.22;;;;;;;14.66;67.27;100914.00;5030134;28;20388;-64
2022/10/16 02:10:56;;;;;;;11.80;7.75;;;;;;;14.67;67.59;100918.38;5030749;28;20103;-63
2022/10/16 02:13:36;;;;;;;12.52;7.25;;;;;;;14.62;67.78;100918.00;5030885;28;20030;-63
2022/10/16 02:16:02;;;;;;;13.90;7.25;;;;;;;14.57;68.27;100922.13;5030074;28;20431;-63
2022/10/16 02:18:30;;;;;;;9.82;7.10;;;;;;;14.52;68.45;100922.56;5030598;28;20061;-63
2022/10/16 02:21:06;;;;;;;10.68;7.38;;;;;;;14.44;68.91;100914.31;5028732;28;20037;-63
2022/10/16 02:24:03;;;;;;;13.40;7.88;;;;;;;14.52;68.79;100944.16;5030687;28;20075;-63
2022/10/16 02:27:04;;;;;;;13.65;7.82;;;;;;;14.44;69.55;100945.88;5029372;28;20053;-64
2022/10/16 02:29:31;;;;;;;14.60;7.78;;;;;;;14.36;69.96;100951.13;5021524;28;20392;-64
2022/10/16 02:32:01;;;;;;;9.57;7.20;;;;;;;14.34;70.37;100950.41;5024475;28;20029;-63
2022/10/16 02:34:30;;;;;;;10.43;7.25;;;;;;;14.23;70.77;100945.16;5020233;28;20036;-64
2022/10/16 02:36:58;;;;;;;14.73;7.35;;;;;;;14.22;70.96;100955.06;5020072;28;20024;-64
2022/10/16 02:39:24;;;;;;;11.93;7.25;;;;;;;14.09;71.19;100929.41;5019377;28;20559;-64
2022/10/16 02:41:50;;;;;;;12.15;7.20;;;;;;;14.05;71.23;100934.19;5016748;28;20041;-64
2022/10/16 02:44:15;;;;;;;13.70;8.07;;;;;;;14.10;71.50;100956.22;5021169;28;20034;-63
2022/10/16 02:46:41;;;;;;;12.68;7.72;;;;;;;14.09;71.59;100954.50;5021096;28;20034;-63
2022/10/16 02:49:06;;;;;;;12.23;8.02;;;;;;;13.93;71.69;100931.81;5034468;28;20077;-63
2022/10/16 02:51:31;;;;;;;11.48;8.25;;;;;;;14.03;71.84;100957.78;5019946;28;20061;-64
2022/10/16 02:53:57;;;;;;;12.65;8.13;;;;;;;13.96;72.08;100948.53;5020421;28;20105;-63
2022/10/16 02:56:23;;;;;;;10.43;7.97;;;;;;;13.92;72.79;100962.44;5025288;28;20064;-63
2022/10/16 02:58:48;;;;;;;10.00;7.20;;;;;;;13.91;72.30;100963.44;5016751;28;20045;-63
2022/10/16 03:01:16;;;;;;;13.68;8.50;;;;;;;13.85;72.48;100954.06;5020792;28;20029;-63
2022/10/16 03:03:42;;;;;;;14.63;7.82;;;;;;;13.84;73.01;100959.59;5020341;28;20041;-63
2022/10/16 03:06:07;;;;;;;13.52;7.90;;;;;;;13.74;72.84;100955.03;5016985;28;20029;-63
2022/10/16 03:08:33;;;;;;;11.48;8.18;;;;;;;13.77;73.51;100967.41;5021328;28;20041;-64
2022/10/16 03:10:58;;;;;;;11.45;7.65;;;;;;;13.73;73.68;100968.66;5023141;28;20033;-63
2022/10/16 03:13:24;;;;;;;13.60;8.02;;;;;;;13.65;73.83;100966.66;5029888;28;20029;-63
2022/10/16 03:15:49;;;;;;;14.02;8.05;;;;;;;13.61;74.14;100969.78;5029467;28;20056;-63
2022/10/16 03:18:15;;;;;;;12.57;8.50;;;;;;;13.55;74.33;100967.63;5029598;28;20032;-63
2022/10/16 03:20:42;;;;;;;9.52;6.90;;;;;;;13.57;74.43;100973.72;5027566;28;20103;-63
2022/10/16 03:23:08;;;;;;;16.70;8.25;;;;;;;13.56;74.68;100972.88;5029575;28;20424;-63
2022/10/16 03:25:33;;;;;;;12.27;8.25;;;;;;;13.45;74.30;100964.91;5029192;28;20036;-63
2022/10/16 03:27:59;;;;;;;10.52;8.30;;;;;;;13.41;74.09;100962.59;5029274;28;20067;-63
2022/10/16 03:30:24;;;;;;;11.65;7.80;;;;;;;13.48;74.26;100979.97;5029509;28;20068;-63
2022/10/16 03:32:53;;;;;;;12.70;8.27;;;;;;;13.49;74.12;100982.53;5029025;28;20025;-63
2022/10/16 03:35:23;;;;;;;10.98;7.63;;;;;;;13.44;74.57;100989.28;5029411;28;20067;-63
2022/10/16 03:37:49;;;;;;;12.63;8.52;;;;;;;13.40;74.26;100986.03;5029310;28;20037;-63
2022/10/16 03:40:16;;;;;;;14.05;7.88;;;;;;;13.37;75.31;100988.13;5029163;28;20033;-63
2022/10/16 03:42:44;;;;;;;14.02;8.23;;;;;;;13.34;74.65;100981.19;5029057;28;20484;-64
2022/10/16 03:45:11;;;;;;;10.98;8.10;;;;;;;13.23;74.82;100975.88;5029395;28;20033;-63
2022/10/16 03:47:36;;;;;;;10.90;7.50;;;;;;;13.30;75.46;100993.22;5029299;28;20488;-63
2022/10/16 03:50:02;;;;;;;11.63;7.35;;;;;;;13.25;75.80;100998.16;5028975;28;20029;-63
2022/10/16 03:52:28;;;;;;;11.40;7.68;;;;;;;13.15;75.57;100982.94;5029280;28;20144;-63
2022/10/16 03:54:53;;;;;;;9.23;7.75;;;;;;;13.22;75.72;101011.06;5028979;28;20034;-63
2022/10/16 03:57:20;;;;;;;13.35;7.82;;;;;;;13.16;76.16;101003.50;5029147;28;20030;-63
2022/10/16 03:59:46;;;;;;;11.50;8.25;;;;;;;13.16;76.28;101009.72;5028956;28;20029;-63
2022/10/16 04:02:11;;;;;;;11.82;7.97;;;;;;;13.16;76.25;101014.28;5028630;28;20036;-63
2022/10/16 04:04:36;;;;;;;14.00;7.97;;;;;;;13.05;76.42;101017.03;5028871;28;20030;-63
2022/10/16 04:07:02;;;;;;;11.15;7.45;;;;;;;13.05;76.30;101003.56;5029176;28;20380;-63
2022/10/16 04:09:27;;;;;;;13.25;8.80;;;;;;;13.08;76.68;101016.78;5029064;28;20160;-63
2022/10/16 04:11:53;;;;;;;11.30;8.13;;;;;;;12.98;76.82;101002.38;5028999;28;20040;-74
2022/10/16 04:14:18;;;;;;;12.45;8.25;;;;;;;12.99;76.88;101018.44;5029161;28;20143;-74
2022/10/16 04:16:44;;;;;;;13.65;8.35;;;;;;;12.95;77.34;101014.28;5028972;28;20029;-73
2022/10/16 04:19:10;;;;;;;13.35;7.85;;;;;;;12.87;77.38;101005.16;5029160;28;20030;-73
2022/10/16 04:21:36;;;;;;;11.30;7.88;;;;;;;12.88;77.71;101020.31;5029283;28;20069;-73
2022/10/16 04:24:01;;;;;;;14.73;8.30;;;;;;;12.89;78.19;101025.56;5028683;28;20808;-74
2022/10/16 04:26:27;;;;;;;13.43;8.50;;;;;;;12.86;78.45;101024.97;5028856;28;20045;-73
2022/10/16 04:28:52;;;;;;;11.35;7.70;;;;;;;12.81;78.27;101016.44;5028864;28;20120;-73
2022/10/16 04:31:18;;;;;;;14.90;8.48;;;;;;;12.84;78.27;101024.25;5027576;28;20033;-74
2022/10/16 04:33:43;;;;;;;9.55;7.93;;;;;;;12.80;78.31;101020.13;5028771;28;20087;-73
2022/10/16 04:36:09;;;;;;;12.00;8.98;;;;;;;12.63;78.46;101002.72;5026895;28;20033;-73
2022/10/16 04:38:34;;;;;;;13.82;8.85;;;;;;;12.72;78.53;101017.22;5030219;28;20449;-73
2022/10/16 04:41:00;;;;;;;14.45;9.07;;;;;;;12.58;78.94;101001.41;5032573;28;20112;-73
2022/10/16 04:43:26;;;;;;;11.45;8.73;;;;;;;12.61;78.63;101006.53;5031129;28;20036;-73
2022/10/16 04:45:51;;;;;;;11.25;7.82;;;;;;;12.60;79.12;101015.56;5032362;28;20469;-74
2022/10/16 04:48:17;;;;;;;10.80;7.90;;;;;;;12.45;79.38;100998.91;5031920;28;20034;-73
2022/10/16 04:50:43;;;;;;;10.02;8.20;;;;;;;12.53;79.39;101020.63;5032161;28;20036;-73
2022/10/16 04:53:08;;;;;;;14.30;8.57;;;;;;;12.48;79.44;101022.03;5031851;28;20440;-73
2022/10/16 04:55:34;;;;;;;17.08;9.25;;;;;;;12.47;79.33;101029.22;5031015;28;20055;-74
2022/10/16 04:58:00;;;;;;;11.70;8.98;;;;;;;12.34;79.97;101007.03;5032233;28;20025;-74
2022/10/16 05:00:25;;;;;;;12.85;9.15;;;;;;;12.39;79.81;101025.47;5031698;28;20415;-74
2022/10/16 05:02:51;;;;;;;13.63;9.38;;;;;;;12.29;80.51;101027.22;5030768;28;20446;-73
2022/10/16 05:05:18;;;;;;;16.48;9.07;;;;;;;12.24;80.83;101022.22;5032230;28;20039;-73
2022/10/16 05:07:44;;;;;;;15.23;9.45;;;;;;;12.33;80.17;101040.31;5031648;28;20080;-73
2022/10/16 05:10:09;;;;;;;15.57;9.35;;;;;;;12.30;80.99;101042.38;5031962;28;20025;-73
2022/10/16 05:12:35;;;;;;;14.07;9.35;;;;;;;12.28;81.00;101047.06;5031857;28;20117;-74
2022/10/16 05:15:00;;;;;;;11.88;8.95;;;;;;;12.22;81.23;101040.31;5031924;28;20057;-73
2022/10/16 05:17:26;;;;;;;13.38;9.55;;;;;;;12.19;81.62;101048.66;5031947;28;20120;-73
2022/10/16 05:19:51;;;;;;;14.63;9.52;;;;;;;12.18;82.09;101052.31;5031668;28;20071;-74
2022/10/16 05:22:17;;;;;;;12.32;8.88;;;;;;;12.11;82.09;101043.06;5031823;28;20045;-74
2022/10/16 05:24:42;;;;;;;12.40;9.35;;;;;;;12.12;82.26;101055.53;5031325;28;20025;-73
2022/10/16 05:27:08;;;;;;;16.30;9.68;;;;;;;12.12;82.73;101063.59;5031605;28;20072;-73
2022/10/16 05:29:33;;;;;;;15.48;9.63;;;;;;;12.06;82.46;101056.03;5031651;28;20159;-74
2022/10/16 05:31:58;;;;;;;17.38;10.20;;;;;;;12.10;82.11;101065.56;5031421;28;20121;-73
2022/10/16 05:34:24;;;;;;;15.57;9.85;;;;;;;12.10;82.89;101062.88;5031481;28;20029;-74
2022/10/16 05:36:49;;;;;;;12.57;9.10;;;;;;;12.12;82.31;101060.91;5031077;28;20029;-73
2022/10/16 05:39:16;;;;;;;14.95;9.85;;;;;;;12.10;82.07;101064.69;5031648;28;20036;-75
2022/10/16 05:41:42;;;;;;;11.68;9.38;;;;;;;11.89;82.16;101028.81;5031696;28;20021;-75
2022/10/16 05:44:07;;;;;;;15.68;9.20;;;;;;;12.08;82.99;101066.66;5031661;28;20079;-75
2022/10/16 05:46:33;;;;;;;12.88;9.30;;;;;;;12.04;82.64;101079.50;5031694;28;20056;-75
2022/10/16 05:48:58;;;;;;;14.13;10.38;;;;;;;12.09;82.54;101084.50;5030638;28;20133;-75
2022/10/16 05:51:24;;;;;;;18.42;9.90;;;;;;;12.08;83.23;101080.97;5030688;28;20407;-75
2022/10/16 05:53:49;;;;;;;15.20;9.00;;;;;;;12.07;82.75;101087.31;5031207;28;20094;-75
2022/10/16 05:56:15;;;;;;;16.08;10.68;;;;;;;12.08;82.90;101090.84;5031376;28;20383;-74
2022/10/16 05:58:41;;;;;;;14.73;9.73;;;;;;;12.00;83.42;101083.44;5030706;28;20037;-75
2022/10/16 06:01:10;;;;;;;15.95;10.25;;;;;;;12.10;83.22;101107.72;5031512;28;20044;-75
2022/10/16 06:03:36;;;;;;;15.18;10.05;;;;;;;12.12;83.52;101111.16;5029926;28;20204;-75
2022/10/16 06:06:16;;;;;;;16.60;9.82;;;;;;;12.13;82.89;101110.16;5023037;28;20056;-74
2022/10/16 06:08:43;;;;;;;12.40;9.57;;;;;;;12.18;83.10;101111.50;5020572;28;20037;-75
2022/10/16 06:11:13;;;;;;;15.82;10.38;;;;;;;12.17;83.41;101112.47;5020853;28;20025;-74
2022/10/16 06:13:42;;;;;;;16.17;10.75;;;;;;;12.03;83.46;101085.00;5020106;28;20022;-75
2022/10/16 06:16:09;;;;;;;14.45;9.68;;;;;;;12.20;83.75;101127.50;5019798;28;20025;-74
2022/10/16 06:18:34;;;;;;;14.05;10.90;;;;;;;12.22;82.81;101120.19;5021475;28;20040;-75
2022/10/16 06:20:59;;;;;;;14.93;9.98;;;;;;;12.09;83.36;101104.16;5018450;28;20025;-75
2022/10/16 06:23:25;;;;;;;15.57;10.40;;;;;;;12.28;82.54;101128.59;5021081;28;20041;-75
2022/10/16 06:25:51;;;;;;;14.82;10.20;;;;;;;12.26;82.57;101127.88;5021098;28;20083;-74
2022/10/16 06:28:16;;;;;;;12.85;9.75;;;;;;;12.32;82.78;101137.28;5018494;28;20412;-75
2022/10/16 06:30:45;;;;;;;16.15;10.52;;;;;;;12.35;82.50;101145.94;5020114;28;20033;-75
2022/10/16 06:33:11;;;;;;;14.25;11.10;;;;;;;12.38;82.79;101144.84;5019155;28;20022;-75
2022/10/16 06:35:36;;;;;;;14.00;10.50;;;;;;;12.42;82.64;101141.78;5017978;28;20039;-75
2022/10/16 06:38:02;;;;;;;16.77;10.05;;;;;;;12.48;82.14;101143.94;5019921;28;20038;-75
2022/10/16 06:40:27;;;;;;;15.13;10.68;;;;;;;12.56;82.06;101148.69;5020467;28;20064;-75
2022/10/16 06:42:55;;;;;;;14.35;10.55;;;;;;;12.58;81.99;101144.03;5027257;28;20742;-75
2022/10/16 06:45:20;;;;;;;14.45;10.45;;;;;;;12.55;82.11;101125.47;5025189;28;20029;-75
2022/10/16 06:47:46;;;;;;;15.95;10.57;;;;;;;12.76;81.91;101155.94;5027821;28;20360;-74
2022/10/16 06:50:11;;;;;;;17.92;11.00;;;;;;;12.79;82.38;101153.88;5021979;28;20036;-74
2022/10/16 06:52:36;;;;;;;15.05;10.52;;;;;;;12.88;81.52;101149.53;5017332;28;20037;-75
2022/10/16 06:55:02;;;;;;;14.50;10.60;;;;;;;12.95;81.33;101162.38;5024419;28;20034;-75
2022/10/16 06:57:28;;;;;;;20.85;10.55;;;;;;;13.08;79.72;101149.59;5026328;28;20056;-75
2022/10/16 06:59:54;;;;;;;15.68;10.40;;;;;;;13.07;79.79;101141.66;5023149;28;20071;-75
2022/10/16 07:02:19;;;;;;;15.65;10.00;;;;;;;13.28;79.69;101162.22;5023763;28;20021;-74
2022/10/16 07:04:44;;;;;;;16.05;11.45;;;;;;;13.41;79.20;101157.50;5042077;28;20373;-74
2022/10/16 07:07:10;;;;;;;15.30;9.73;;;;;;;13.53;78.90;101159.13;5042165;28;20029;-75
2022/10/16 07:09:35;;;;;;;17.98;10.23;;;;;;;13.61;78.04;101159.31;5039793;28;20461;-75
2022/10/16 07:12:01;;;;;;;13.50;9.80;;;;;;;13.77;77.25;101156.97;5032081;28;20021;-74
2022/10/16 07:14:27;;;;;;;15.90;10.18;;;;;;;13.87;76.24;101151.66;5039879;28;20375;-74
2022/10/16 07:16:53;;;;;;;18.10;11.05;;;;;;;14.15;75.37;101166.25;5042791;28;20036;-73
2022/10/16 07:19:18;;;;;;;12.48;9.85;;;;;;;14.29;74.49;101169.44;5040586;28;20032;-75
2022/10/16 07:21:44;;;;;;;14.73;9.80;;;;;;;14.68;72.86;101178.47;5031239;28;20052;-75
2022/10/16 07:24:15;;;;;;;15.60;9.70;;;;;;;15.25;71.26;101167.69;5046285;28;20053;-74
2022/10/16 07:26:42;;;;;;;18.98;9.77;;;;;;;16.07;65.97;101168.75;5036872;28;20081;-74
2022/10/16 07:29:20;;;;;;;17.55;9.43;;;;;;;17.08;62.59;101173.84;5039044;28;20065;-65
2022/10/16 07:31:47;;;;;;;11.75;8.68;;;;;;;17.77;59.18;101168.50;5016970;28;20395;-64
2022/10/16 07:34:16;;;;;;;13.18;8.13;;;;;;;18.53;56.62;101172.94;5036673;28;20032;-63
2022/10/16 07:36:42;;;;;;;12.38;8.48;;;;;;;19.13;54.03;101171.72;5033314;28;20041;-65
2022/10/16 07:39:08;;;;;;;11.57;8.38;;;;;;;19.69;52.44;101179.03;5026217;28;20038;-64
2022/10/16 07:41:36;;;;;;;11.85;8.18;;;;;;;20.33;50.91;101180.75;5030277;28;20190;-64
2022/10/16 07:44:03;;;;;;;11.32;7.80;;;;;;;20.83;48.87;101162.94;5035108;28;20029;-64
2022/10/16 07:46:29;;;;;;;11.15;7.93;;;;;;;21.30;47.46;101176.47;5028646;28;20033;-65
2022/10/16 07:48:55;;;;;;;12.73;7.65;;;;;;;21.84;46.67;101172.59;5023361;28;20040;-64
2022/10/16 07:51:23;;;;;;;12.77;8.25;;;;;;;22.15;45.22;101170.50;5023718;28;20049;-65
2022/10/16 07:53:49;;;;;;;12.52;7.13;;;;;;;22.11;44.62;101148.19;5018557;28;20033;-65
2022/10/16 07:56:16;;;;;;;12.40;7.15;;;;;;;22.41;43.96;101179.09;5026799;28;20057;-65
2022/10/16 07:58:41;;;;;;;10.80;7.05;;;;;;;22.23;44.39;101175.91;5027932;28;20025;-65
2022/10/16 08:01:14;;;;;;;12.02;6.97;;;;;;;21.71;45.43;101166.88;5024389;28;20373;-65
2022/10/16 08:03:48;;;;;;;9.32;7.15;;;;;;;21.11;46.62;101172.34;5024640;28;20464;-65
2022/10/16 08:06:14;;;;;;;12.82;7.15;;;;;;;20.58;48.02;101185.94;5025842;28;20049;-65
2022/10/16 08:08:40;;;;;;;11.15;6.75;;;;;;;20.17;49.48;101189.84;5028680;28;20541;-65
2022/10/16 08:11:05;;;;;;;13.10;6.60;;;;;;;19.69;50.00;101185.34;5026907;28;20034;-65
2022/10/16 08:13:31;;;;;;;9.30;6.85;;;;;;;19.51;50.11;101186.56;5033475;28;20480;-65
2022/10/16 08:15:57;;;;;;;11.93;6.40;;;;;;;19.12;51.65;101189.03;5032469;28;20104;-64
2022/10/16 08:18:23;;;;;;;9.73;6.00;;;;;;;18.83;52.79;101198.69;5032275;28;20195;-65
2022/10/16 08:20:56;;;;;;;9.50;6.82;;;;;;;18.63;53.18;101198.13;5032404;28;20045;-64
2022/10/16 08:23:22;;;;;;;11.10;6.50;;;;;;;18.44;54.03;101203.81;5032180;28;20045;-65
2022/10/16 08:25:47;;;;;;;9.13;5.90;;;;;;;18.23;54.86;101197.94;5048604;28;20032;-65
2022/10/16 08:28:13;;;;;;;7.32;5.47;;;;;;;18.15;55.16;101205.19;5037697;28;20045;-65
2022/10/16 08:30:38;;;;;;;8.52;5.80;;;;;;;18.09;55.76;101209.41;5032470;28;20392;-65
2022/10/16 08:33:04;;;;;;;11.30;6.50;;;;;;;17.95;55.86;101201.84;5030831;28;20037;-65
2022/10/16 08:35:29;;;;;;;11.45;6.22;;;;;;;17.91;56.28;101197.75;5033660;28;20025;-64
2022/10/16 08:37:55;;;;;;;10.52;7.03;;;;;;;17.81;56.00;101199.72;5034720;28;20494;-65
2022/10/16 08:40:25;;;;;;;12.90;6.18;;;;;;;17.81;56.65;101207.88;5027000;28;20033;-66
2022/10/16 08:43:21;;;;;;;10.32;6.03;;;;;;;17.82;56.91;101217.69;5026036;28;20527;-64
2022/10/16 08:46:08;;;;;;;11.80;6.53;;;;;;;17.82;57.26;101213.13;5047771;28;20439;-64
2022/10/16 08:48:50;;;;;;;12.13;6.38;;;;;;;17.87;56.62;101212.66;5048704;28;20222;-64
2022/10/16 08:51:25;;;;;;;12.70;6.15;;;;;;;18.02;55.61;101217.34;5044816;28;20683;-65
2022/10/16 08:53:55;;;;;;;11.73;6.15;;;;;;;18.15;55.64;101235.91;5015655;28;20538;-64
2022/10/16 08:56:22;;;;;;;10.05;5.60;;;;;;;18.16;55.64;101218.59;5031867;28;20694;-65
2022/10/16 08:58:48;;;;;;;9.10;5.57;;;;;;;18.35;55.13;101229.25;5029987;28;20033;-65
2022/10/16 09:01:16;;;;;;;12.57;6.28;;;;;;;18.36;54.83;101198.38;5031904;28;20068;-64
2022/10/16 09:04:19;;;;;;;13.68;6.00;;;;;;;18.87;53.69;101221.81;5032218;28;20040;-65
2022/10/16 09:06:53;;;;;;;7.95;5.68;;;;;;;19.50;52.94;101223.78;5031817;28;20507;-64
2022/10/16 09:09:45;;;;;;;12.80;6.18;;;;;;;21.90;46.97;101221.84;5031877;28;20369;-64
2022/10/16 09:12:19;;;;;;;10.68;5.60;;;;;;;24.47;41.22;101214.41;5020018;28;20048;-65
2022/10/16 09:15:00;;;;;;;12.52;5.28;;;;;;;26.56;37.20;101210.09;5021681;28;20100;-63
2022/10/16 09:17:49;;;;;;;8.18;4.72;;;;;;;28.22;34.24;101212.22;5031405;28;20400;-65
2022/10/16 09:20:30;;;;;;;9.32;5.55;;;;;;;29.67;31.45;101211.00;5029815;28;20084;-74
2022/10/16 09:23:05;;;;;;;11.02;5.10;;;;;;;30.52;30.19;101204.78;5031625;28;20057;-74
2022/10/16 09:25:32;;;;;;;8.93;4.65;;;;;;;31.63;28.95;101194.00;5030593;28;20037;-75
2022/10/16 09:27:57;;;;;;;15.63;5.35;;;;;;;32.09;27.73;101210.34;5029726;28;20046;-74
2022/10/16 09:30:27;;;;;;;8.68;4.88;;;;;;;32.24;27.55;101210.56;5031254;28;20730;-74
2022/10/16 09:32:54;;;;;;;5.90;4.50;;;;;;;32.33;27.50;101211.84;5031795;28;20025;-74
2022/10/16 09:35:31;;;;;;;9.00;4.50;;;;;;;32.78;26.74;101213.59;5031412;28;20061;-73
2022/10/16 09:37:56;;;;;;;10.02;4.65;;;;;;;32.62;26.77;101209.75;5025046;28;20067;-73
2022/10/16 09:40:26;;;;;;;8.50;4.05;;;;;;;32.94;26.36;101219.09;5024304;28;20065;-73
2022/10/16 09:43:01;;;;;;;7.38;4.82;;;;;;;33.60;26.26;101217.91;5024853;28;20083;-74
2022/10/16 09:45:26;;;;;;;6.70;4.68;;;;;;;33.71;25.65;101222.44;5032559;28;20021;-72
2022/10/16 09:47:52;;;;;;;9.57;4.57;;;;;;;33.35;25.96;101215.69;5029598;28;20104;-73
2022/10/16 09:50:28;;;;;;;10.93;4.47;;;;;;;33.70;25.74;101218.84;5029727;28;20055;-73
2022/10/16 09:53:14;;;;;;;9.02;4.28;;;;;;;34.17;25.17;101211.44;5041953;28;20048;-74
2022/10/16 09:55:50;;;;;;;6.30;3.67;;;;;;;34.44;24.79;101211.38;5045798;28;20032;-73
2022/10/16 09:58:15;;;;;;;6.85;4.00;;;;;;;34.97;24.07;101199.94;5045394;28;20033;-74
2022/10/16 10:00:48;;;;;;;9.30;3.97;;;;;;;35.10;24.14;101212.53;5031219;28;20558;-74
2022/10/16 10:03:33;;;;;;;5.72;3.92;;;;;;;35.40;23.79;101202.28;5030843;28;20047;-73
2022/10/16 10:06:16;;;;;;;9.35;4.13;;;;;;;34.93;24.02;101211.91;5017720;28;20391;-74
2022/10/16 10:08:59;;;;;;;7.50;4.10;;;;;;;34.30;24.32;101224.91;5030255;28;20376;-73
2022/10/16 10:11:41;;;;;;;8.48;4.63;;;;;;;33.84;24.90;101213.66;5032389;28;20101;-73
2022/10/16 10:14:25;;;;;;;8.90;4.40;;;;;;;33.86;25.01;101211.47;5034081;28;20406;-74
2022/10/16 10:17:01;;;;;;;7.63;4.05;;;;;;;32.55;26.41;101206.31;5048182;28;20503;-73
2022/10/16 10:19:27;;;;;;;6.30;4.22;;;;;;;31.75;27.74;101210.56;5044957;28;20036;-75
2022/10/16 10:21:53;;;;;;;8.00;4.03;;;;;;;30.96;28.57;101208.78;5041417;28;20529;-64
2022/10/16 10:24:19;;;;;;;7.07;4.45;;;;;;;30.33;29.20;101210.69;5037870;28;20053;-64
2022/10/16 10:26:54;;;;;;;8.30;3.97;;;;;;;29.41;30.78;101221.59;5036309;28;20107;-64
2022/10/16 10:29:32;;;;;;;7.38;4.35;;;;;;;28.64;31.10;101227.91;5038729;28;20688;-64
2022/10/16 10:32:00;;;;;;;8.23;4.50;;;;;;;27.75;33.05;101218.34;5033302;28;20021;-64
2022/10/16 10:34:51;;;;;;;6.70;4.20;;;;;;;27.00;33.63;101227.50;5029815;28;20039;-64
2022/10/16 10:37:26;;;;;;;9.35;4.32;;;;;;;25.92;35.93;101223.72;5018841;28;20519;-64
2022/10/16 10:40:19;;;;;;;7.30;4.03;;;;;;;25.06;37.40;101223.78;5031519;28;20041;-64
2022/10/16 10:42:58;;;;;;;8.68;5.03;;;;;;;24.26;38.59;101210.72;5033344;28;20041;-64
2022/10/16 10:45:37;;;;;;;7.32;4.70;;;;;;;23.81;39.61;101222.16;5046353;28;20063;-63
2022/10/16 10:48:27;;;;;;;8.82;4.90;;;;;;;23.28;40.94;101225.44;5036619;28;20021;-63
2022/10/16 10:51:01;;;;;;;5.97;4.32;;;;;;;22.88;41.69;101217.81;5036001;28;20017;-65
2022/10/16 10:53:46;;;;;;;5.43;4.40;;;;;;;22.64;42.36;101220.88;5029702;28;20132;-64
2022/10/16 10:56:42;;;;;;;7.88;4.82;;;;;;;22.26;42.94;101214.66;5040395;28;20045;-73
2022/10/16 10:59:29;;;;;;;9.80;4.85;;;;;;;22.23;43.43;101227.81;5045595;28;20032;-74
2022/10/16 11:02:15;;;;;;;8.60;4.35;;;;;;;22.03;44.20;101221.22;5015086;28;20036;-75
2022/10/16 11:04:59;;;;;;;12.98;4.53;;;;;;;21.89;44.63;101219.28;5042194;28;20122;-75
2022/10/16 11:07:29;;;;;;;5.83;3.60;;;;;;;21.79;44.66;101213.25;5044333;28;20555;-73
2022/10/16 11:10:12;;;;;;;12.48;4.75;;;;;;;21.75;45.10;101210.06;5035611;28;20491;-75
2022/10/16 11:12:44;;;;;;;8.07;4.65;;;;;;;21.68;45.39;101210.94;5038092;28;20135;-73
2022/10/16 11:15:21;;;;;;;12.00;4.95;;;;;;;21.57;45.34;101214.94;5044691;28;20040;-74
2022/10/16 11:17:49;;;;;;;5.57;4.40;;;;;;;21.48;45.24;101210.59;5021439;28;20024;-74
2022/10/16 11:20:22;;;;;;;8.55;4.20;;;;;;;21.37;45.50;101199.25;5039838;28;20158;-74
2022/10/16 11:22:54;;;;;;;9.63;4.68;;;;;;;21.35;45.60;101199.44;5036471;28;20033;-73
2022/10/16 11:25:28;;;;;;;8.63;4.40;;;;;;;21.28;46.17;101203.94;5046045;28;20049;-74
2022/10/16 11:28:05;;;;;;;7.05;4.25;;;;;;;21.20;45.62;101208.59;5034934;28;20064;-74
2022/10/16 11:30:43;;;;;;;8.82;4.50;;;;;;;21.11;46.15;101202.34;5042621;28;20119;-75
2022/10/16 11:33:08;;;;;;;8.15;4.28;;;;;;;21.07;45.95;101213.81;5033201;28;20036;-74